createdAt,value
2023-05-22T00:01:56.769Z,19.54
2023-05-22T00:04:23.892Z,19.54
2023-05-22T00:06:50.889Z,19.54
2023-05-22T00:09:17.966Z,19.54
2023-05-22T00:11:45.181Z,19.53
2023-05-22T00:14:13.739Z,19.54
2023-05-22T00:16:41.411Z,19.53
2023-05-22T00:19:17.408Z,19.53
2023-05-22T00:21:44.586Z,19.51
2023-05-22T00:24:12.366Z,19.51
2023-05-22T00:26:39.376Z,19.52
2023-05-22T00:29:06.254Z,19.51
2023-05-22T00:31:33.678Z,19.45
2023-05-22T00:34:00.804Z,19.36
2023-05-22T00:36:27.850Z,19.32
2023-05-22T00:38:54.746Z,19.30
2023-05-22T00:41:22.390Z,19.30
2023-05-22T00:43:51.144Z,19.28
2023-05-22T00:46:21.757Z,19.26
2023-05-22T00:48:49.268Z,19.26
2023-05-22T00:51:16.285Z,19.28
2023-05-22T00:53:43.597Z,19.28
2023-05-22T00:56:10.620Z,19.27
2023-05-22T00:58:37.731Z,19.23
2023-05-22T01:01:07.774Z,19.18
2023-05-22T01:03:35.267Z,19.13
2023-05-22T01:06:02.180Z,19.12
2023-05-22T01:08:29.351Z,19.07
2023-05-22T01:11:08.485Z,19.01
2023-05-22T01:13:53.925Z,18.96
2023-05-22T01:16:37.432Z,18.90
2023-05-22T01:19:33.207Z,18.80
2023-05-22T01:22:32.346Z,18.80
2023-05-22T01:25:21.198Z,18.76
2023-05-22T01:28:10.126Z,18.72
2023-05-22T01:30:45.868Z,18.75
2023-05-22T01:33:17.376Z,18.76
2023-05-22T01:35:54.064Z,18.74
2023-05-22T01:38:21.811Z,18.76
2023-05-22T01:40:49.692Z,18.76
2023-05-22T01:43:17.697Z,18.75
2023-05-22T01:45:46.221Z,18.74
2023-05-22T01:48:13.185Z,18.74
2023-05-22T01:50:41.099Z,18.73
2023-05-22T01:53:33.690Z,18.66
2023-05-22T01:56:30.698Z,18.61
2023-05-22T01:59:02.502Z,18.65
2023-05-22T02:01:32.668Z,18.62
2023-05-22T02:04:01.385Z,18.60
2023-05-22T02:06:32.340Z,18.56
2023-05-22T02:09:02.313Z,18.49
2023-05-22T02:11:33.172Z,18.47
2023-05-22T02:14:01.912Z,18.44
2023-05-22T02:16:30.331Z,18.42
2023-05-22T02:19:06.096Z,18.37
2023-05-22T02:21:53.121Z,18.31
2023-05-22T02:24:20.118Z,18.30
2023-05-22T02:26:47.893Z,18.33
2023-05-22T02:29:17.745Z,18.31
2023-05-22T02:31:44.790Z,18.26
2023-05-22T02:34:11.884Z,18.24
2023-05-22T02:36:38.809Z,18.19
2023-05-22T02:39:05.756Z,18.22
2023-05-22T02:41:33.295Z,18.11
2023-05-22T02:44:00.229Z,18.10
2023-05-22T02:46:27.229Z,18.11
2023-05-22T02:48:54.215Z,18.06
2023-05-22T02:51:21.423Z,18.02
2023-05-22T02:53:48.305Z,18.03
2023-05-22T02:56:15.819Z,18.03
2023-05-22T02:58:42.742Z,18.03
2023-05-22T03:01:10.565Z,18.02
2023-05-22T03:03:37.918Z,18.05
2023-05-22T03:06:05.121Z,18.04
2023-05-22T03:08:33.461Z,18.05
2023-05-22T03:11:03.198Z,18.04
2023-05-22T03:13:30.193Z,18.07
2023-05-22T03:15:57.183Z,18.07
2023-05-22T03:18:26.700Z,18.07
2023-05-22T03:20:55.332Z,18.07
2023-05-22T03:23:22.637Z,18.06
2023-05-22T03:25:49.672Z,18.06
2023-05-22T03:28:16.833Z,18.10
2023-05-22T03:30:44.826Z,18.07
2023-05-22T03:33:17.815Z,17.82
2023-05-22T03:35:45.075Z,18.08
2023-05-22T03:38:12.243Z,18.15
2023-05-22T03:40:40.079Z,18.19
2023-05-22T03:43:08.824Z,18.23
2023-05-22T03:45:35.959Z,18.28
2023-05-22T03:48:04.248Z,18.30
2023-05-22T03:50:31.299Z,18.34
2023-05-22T03:52:58.179Z,18.38
2023-05-22T03:55:25.082Z,18.43
2023-05-22T03:57:51.991Z,18.47
2023-05-22T04:00:19.819Z,18.52
2023-05-22T04:02:47.113Z,18.55
2023-05-22T04:05:14.154Z,18.60
2023-05-22T04:07:41.321Z,18.63
2023-05-22T04:10:08.656Z,18.65
2023-05-22T04:12:35.650Z,18.68
2023-05-22T04:15:02.875Z,18.70
2023-05-22T04:17:36.096Z,18.76
2023-05-22T04:20:05.474Z,18.84
2023-05-22T04:22:33.721Z,18.93
2023-05-22T04:25:00.586Z,19.01
2023-05-22T04:27:30.954Z,19.03
2023-05-22T04:30:00.160Z,19.11
2023-05-22T04:32:27.670Z,19.16
2023-05-22T04:34:58.521Z,19.16
2023-05-22T04:37:28.784Z,19.21
2023-05-22T04:39:58.350Z,19.28
2023-05-22T04:42:25.510Z,19.32
2023-05-22T04:44:58.087Z,19.40
2023-05-22T04:47:25.276Z,19.44
2023-05-22T04:49:52.162Z,19.49
2023-05-22T04:52:19.030Z,19.57
2023-05-22T04:54:46.879Z,19.62
2023-05-22T04:57:14.157Z,19.69
2023-05-22T04:59:41.600Z,19.75
2023-05-22T05:02:09.354Z,19.83
2023-05-22T05:04:38.785Z,19.91
2023-05-22T05:07:06.303Z,20.07
2023-05-22T05:09:33.639Z,20.13
2023-05-22T05:12:02.250Z,20.25
2023-05-22T05:14:29.679Z,20.41
2023-05-22T05:16:57.103Z,20.59
2023-05-22T05:19:24.095Z,20.75
2023-05-22T05:21:51.231Z,21.04
2023-05-22T05:24:19.305Z,21.59
2023-05-22T05:26:48.939Z,21.72
2023-05-22T05:29:17.775Z,21.88
2023-05-22T05:31:54.519Z,22.09
2023-05-22T05:34:35.126Z,22.22
2023-05-22T05:37:10.923Z,22.37
2023-05-22T05:39:38.497Z,22.71
2023-05-22T05:42:07.472Z,23.73
2023-05-22T05:44:34.601Z,25.19
2023-05-22T05:47:03.452Z,26.56
2023-05-22T05:49:30.596Z,28.06
2023-05-22T05:51:58.352Z,28.94
2023-05-22T05:54:28.879Z,29.25
2023-05-22T05:57:01.514Z,30.42
2023-05-22T05:59:29.215Z,31.42
2023-05-22T06:02:24.709Z,32.09
2023-05-22T06:04:56.111Z,32.31
2023-05-22T06:07:24.338Z,32.30
2023-05-22T06:09:53.486Z,32.26
2023-05-22T06:12:41.296Z,32.66
2023-05-22T06:15:09.720Z,32.60
2023-05-22T06:17:39.876Z,32.55
2023-05-22T06:20:07.564Z,32.43
2023-05-22T06:22:35.836Z,32.31
2023-05-22T06:25:03.482Z,32.28
2023-05-22T06:27:33.182Z,32.52
2023-05-22T06:30:03.102Z,32.80
2023-05-22T06:32:35.531Z,33.10
2023-05-22T06:35:03.248Z,33.15
2023-05-22T06:37:35.823Z,33.21
2023-05-22T06:40:03.904Z,33.26
2023-05-22T06:42:52.518Z,33.10
2023-05-22T06:45:25.650Z,33.01
2023-05-22T06:48:21.164Z,33.15
2023-05-22T06:51:12.848Z,33.13
2023-05-22T06:53:41.230Z,32.84
2023-05-22T06:56:16.580Z,32.73
2023-05-22T06:58:52.748Z,32.66
2023-05-22T07:01:23.352Z,33.01
2023-05-22T07:04:02.034Z,33.11
2023-05-22T07:06:39.268Z,33.23
2023-05-22T07:09:07.698Z,33.06
2023-05-22T07:11:38.514Z,33.34
2023-05-22T07:14:05.569Z,33.16
2023-05-22T07:16:32.767Z,32.95
2023-05-22T07:19:01.585Z,32.69
2023-05-22T07:21:31.830Z,32.68
2023-05-22T07:23:59.265Z,32.54
2023-05-22T07:26:32.626Z,32.37
2023-05-22T07:29:07.196Z,32.47
2023-05-22T07:31:34.864Z,32.59
2023-05-22T07:34:02.807Z,32.86
2023-05-22T07:36:31.941Z,32.41
2023-05-22T07:38:59.130Z,32.34
2023-05-22T07:41:28.231Z,32.25
2023-05-22T07:43:55.900Z,32.19
2023-05-22T07:46:28.295Z,32.28
2023-05-22T07:49:01.879Z,31.92
2023-05-22T07:51:33.872Z,31.13
2023-05-22T07:54:02.404Z,31.07
2023-05-22T07:56:30.710Z,31.09
2023-05-22T07:58:58.659Z,31.25
2023-05-22T08:01:26.159Z,31.55
2023-05-22T08:03:53.331Z,31.84
2023-05-22T08:06:23.220Z,32.08
2023-05-22T08:08:53.150Z,32.23
2023-05-22T08:11:21.564Z,32.20
2023-05-22T08:13:49.906Z,32.08
2023-05-22T08:16:16.952Z,31.96
2023-05-22T08:18:45.123Z,31.92
2023-05-22T08:21:12.285Z,31.96
2023-05-22T08:23:39.546Z,31.74
2023-05-22T08:26:11.656Z,31.62
2023-05-22T08:28:42.197Z,31.72
2023-05-22T08:31:09.643Z,31.83
2023-05-22T08:33:36.902Z,31.83
2023-05-22T08:36:03.889Z,31.85
2023-05-22T08:38:30.816Z,31.91
2023-05-22T08:40:59.263Z,31.73
2023-05-22T08:43:28.662Z,31.64
2023-05-22T08:46:09.063Z,30.95
2023-05-22T08:48:37.316Z,30.73
2023-05-22T08:51:09.475Z,30.59
2023-05-22T08:53:39.130Z,30.40
2023-05-22T08:56:08.832Z,30.57
2023-05-22T08:58:38.827Z,30.62
2023-05-22T09:01:07.616Z,30.55
2023-05-22T09:03:37.840Z,30.43
2023-05-22T09:06:10.488Z,30.31
2023-05-22T09:08:39.075Z,30.06
2023-05-22T09:11:06.787Z,30.05
2023-05-22T09:13:33.731Z,30.12
2023-05-22T09:16:13.432Z,29.97
2023-05-22T09:18:42.937Z,29.89
2023-05-22T09:21:25.621Z,29.62
2023-05-22T09:24:01.290Z,29.57
2023-05-22T09:26:30.046Z,29.55
2023-05-22T09:29:01.941Z,29.58
2023-05-22T09:31:32.262Z,29.26
2023-05-22T09:33:59.946Z,29.12
2023-05-22T09:36:35.722Z,29.02
2023-05-22T09:39:04.315Z,29.11
2023-05-22T09:41:39.204Z,29.11
2023-05-22T09:44:14.599Z,29.02
2023-05-22T09:46:50.933Z,29.21
2023-05-22T09:49:18.541Z,29.22
2023-05-22T09:51:50.054Z,29.11
2023-05-22T09:54:20.135Z,29.18
2023-05-22T09:56:53.101Z,29.02
2023-05-22T09:59:30.575Z,28.82
2023-05-22T10:01:59.413Z,28.72
2023-05-22T10:04:33.191Z,28.78
2023-05-22T10:07:03.771Z,28.69
2023-05-22T10:09:36.213Z,28.29
2023-05-22T10:12:04.515Z,27.65
2023-05-22T10:14:34.980Z,27.81
2023-05-22T10:17:09.683Z,27.75
2023-05-22T10:19:41.729Z,27.68
2023-05-22T10:22:15.004Z,27.57
2023-05-22T10:24:42.670Z,27.45
2023-05-22T10:27:09.668Z,27.40
2023-05-22T10:29:58.756Z,27.36
2023-05-22T10:32:54.035Z,27.12
2023-05-22T10:35:43.309Z,27.02
2023-05-22T10:38:32.111Z,26.82
2023-05-22T10:41:01.682Z,26.87
2023-05-22T10:43:34.535Z,26.87
2023-05-22T10:46:06.979Z,26.70
2023-05-22T10:48:39.651Z,26.58
2023-05-22T11:36:37.637Z,26.75
2023-05-22T11:39:07.824Z,26.83
2023-05-22T11:41:34.902Z,26.86
2023-05-22T11:44:02.740Z,26.87
2023-05-22T11:46:30.420Z,26.94
2023-05-22T11:48:57.729Z,26.91
2023-05-22T11:51:24.931Z,26.79
2023-05-22T11:53:57.533Z,26.63
2023-05-22T11:56:24.495Z,26.55
2023-05-22T11:58:51.944Z,26.54
2023-05-22T12:01:19.641Z,26.49
2023-05-22T12:03:46.640Z,26.53
2023-05-22T12:06:15.791Z,26.66
2023-05-22T12:08:44.830Z,26.61
2023-05-22T12:11:37.634Z,26.43
2023-05-22T12:14:07.610Z,26.53
2023-05-22T12:16:37.999Z,26.54
2023-05-22T12:19:13.685Z,26.65
2023-05-22T12:21:44.779Z,26.69
2023-05-22T12:24:12.148Z,26.70
2023-05-22T12:26:39.023Z,26.77
2023-05-22T12:29:06.992Z,26.90
2023-05-22T12:31:38.607Z,26.90
2023-05-22T12:34:08.416Z,26.92
2023-05-22T12:36:38.548Z,26.94
2023-05-22T12:39:21.366Z,26.88
2023-05-22T12:41:48.467Z,26.92
2023-05-22T12:44:16.913Z,26.93
2023-05-22T12:46:44.005Z,26.98
2023-05-22T12:49:11.328Z,27.02
2023-05-22T12:51:38.346Z,27.07
2023-05-22T12:54:06.096Z,27.13
2023-05-22T12:56:33.139Z,27.18
2023-05-22T12:59:00.180Z,27.23
2023-05-22T13:01:27.434Z,27.25
2023-05-22T13:03:54.332Z,27.26
2023-05-22T13:06:21.390Z,27.19
2023-05-22T13:08:49.481Z,27.21
2023-05-22T13:11:16.432Z,27.21
2023-05-22T13:13:43.287Z,27.21
2023-05-22T13:16:11.208Z,27.14
2023-05-22T13:18:38.244Z,27.12
2023-05-22T13:21:06.306Z,27.11
2023-05-22T13:23:33.168Z,27.18
2023-05-22T13:26:02.372Z,27.29
2023-05-22T13:28:29.265Z,27.33
2023-05-22T13:30:56.610Z,27.40
2023-05-22T13:33:23.728Z,27.45
2023-05-22T13:35:53.121Z,27.47
2023-05-22T13:38:20.255Z,27.49
2023-05-22T13:40:48.617Z,27.51
2023-05-22T13:43:15.961Z,27.56
2023-05-22T13:45:42.878Z,27.66
2023-05-22T13:48:09.998Z,27.67
2023-05-22T13:50:40.615Z,27.75
2023-05-22T13:53:11.471Z,27.76
2023-05-22T13:55:43.268Z,27.81
2023-05-22T13:58:15.234Z,27.79
2023-05-22T14:00:43.717Z,27.76
2023-05-22T14:03:24.911Z,27.75
2023-05-22T14:05:57.104Z,27.67
2023-05-22T14:08:31.383Z,27.53
2023-05-22T14:10:58.289Z,27.43
2023-05-22T14:13:29.861Z,27.30
2023-05-22T14:16:08.494Z,27.24
2023-05-22T14:18:40.747Z,27.17
2023-05-22T14:21:12.905Z,27.14
2023-05-22T14:23:40.180Z,27.23
2023-05-22T14:26:07.086Z,27.32
2023-05-22T14:28:34.638Z,27.26
2023-05-22T14:31:01.661Z,27.26
2023-05-22T14:33:30.188Z,27.28
2023-05-22T14:35:57.404Z,27.23
2023-05-22T14:38:24.534Z,27.17
2023-05-22T14:40:59.461Z,27.12
2023-05-22T14:43:31.569Z,27.00
2023-05-22T14:45:59.303Z,26.93
2023-05-22T14:48:26.639Z,26.90
2023-05-22T14:50:54.227Z,26.83
2023-05-22T14:53:22.095Z,26.77
2023-05-22T14:55:49.181Z,26.78
2023-05-22T14:58:16.185Z,26.83
2023-05-22T15:00:43.109Z,26.84
2023-05-22T15:07:16.522Z,26.90
2023-05-22T15:09:43.389Z,26.98
2023-05-22T15:12:15.969Z,26.95
2023-05-22T15:14:42.916Z,26.56
2023-05-22T15:17:11.566Z,26.86
2023-05-22T15:19:39.672Z,26.91
2023-05-22T15:22:19.447Z,26.80
2023-05-22T15:25:02.449Z,26.78
2023-05-22T15:27:30.578Z,26.86
2023-05-22T15:29:57.827Z,26.83
2023-05-22T15:32:24.683Z,26.75
2023-05-22T15:35:17.308Z,26.67
2023-05-22T15:37:44.332Z,26.67
2023-05-22T15:40:16.195Z,26.63
2023-05-22T15:42:43.038Z,26.59
2023-05-22T15:45:10.112Z,26.53
2023-05-22T15:47:37.358Z,26.52
2023-05-22T15:50:38.292Z,26.34
2023-05-22T15:53:56.101Z,26.14
2023-05-22T15:56:24.939Z,26.21
2023-05-22T15:58:55.252Z,26.27
2023-05-22T16:01:22.252Z,26.33
2023-05-22T16:03:49.266Z,26.30
2023-05-22T16:06:16.305Z,26.26
2023-05-22T16:08:43.233Z,26.27
2023-05-22T16:11:10.146Z,26.34
2023-05-22T16:13:37.150Z,26.37
2023-05-22T16:16:05.976Z,26.39
2023-05-22T16:18:34.000Z,26.35
2023-05-22T16:21:01.276Z,26.37
2023-05-22T16:23:28.298Z,26.35
2023-05-22T16:25:55.142Z,26.36
2023-05-22T16:28:22.344Z,26.30
2023-05-22T16:30:49.189Z,26.28
2023-05-22T16:33:16.205Z,26.26
2023-05-22T16:35:47.421Z,26.19
2023-05-22T16:38:14.947Z,26.14
2023-05-22T16:40:42.247Z,26.13
2023-05-22T16:43:13.833Z,26.07
2023-05-22T16:45:46.556Z,25.99
2023-05-22T16:48:13.562Z,25.94
2023-05-22T16:50:42.443Z,25.98
2023-05-22T16:53:09.576Z,25.95
2023-05-22T16:55:36.554Z,25.96
2023-05-22T16:58:14.697Z,25.91
2023-05-22T17:00:44.881Z,25.83
2023-05-22T17:03:14.206Z,25.72
2023-05-22T17:05:42.540Z,25.66
2023-05-22T17:08:09.645Z,25.59
2023-05-22T17:10:36.620Z,25.53
2023-05-22T17:13:03.658Z,25.47
2023-05-22T17:15:30.534Z,25.43
2023-05-22T17:17:57.520Z,25.38
2023-05-22T17:20:24.650Z,25.36
2023-05-22T17:22:52.460Z,25.34
2023-05-22T17:25:19.516Z,25.29
2023-05-22T17:27:47.915Z,25.28
2023-05-22T17:30:40.644Z,25.23
2023-05-22T17:33:08.139Z,25.16
2023-05-22T17:35:34.979Z,25.12
2023-05-22T17:38:01.866Z,25.08
2023-05-22T17:40:43.150Z,25.04
2023-05-22T17:43:12.077Z,24.99
2023-05-22T17:45:42.268Z,24.94
2023-05-22T17:48:09.352Z,24.83
2023-05-22T17:50:36.424Z,24.83
2023-05-22T17:53:03.402Z,24.76
2023-05-22T17:55:30.501Z,24.70
2023-05-22T17:57:57.499Z,24.62
2023-05-22T18:00:24.431Z,24.55
2023-05-22T18:02:51.628Z,24.47
2023-05-22T18:05:18.603Z,24.40
2023-05-22T18:07:45.550Z,24.34
2023-05-22T18:10:12.706Z,24.28
2023-05-22T18:12:42.705Z,24.21
2023-05-22T18:15:12.112Z,24.15
2023-05-22T18:17:42.119Z,24.09
2023-05-22T18:20:16.706Z,24.03
2023-05-22T18:22:43.903Z,23.98
2023-05-22T18:25:11.095Z,23.90
2023-05-22T18:27:38.254Z,23.86
2023-05-22T18:30:06.921Z,23.79
2023-05-22T18:32:35.304Z,23.76
2023-05-22T18:35:05.578Z,23.68
2023-05-22T18:37:33.372Z,23.63
2023-05-22T18:40:00.339Z,23.56
2023-05-22T18:42:27.246Z,23.50
2023-05-22T18:44:54.179Z,23.43
2023-05-22T18:47:21.289Z,23.35
2023-05-22T18:49:49.222Z,23.27
2023-05-22T18:52:17.071Z,23.22
2023-05-22T18:54:44.263Z,23.18
2023-05-22T18:57:12.088Z,23.13
2023-05-22T18:59:40.832Z,23.06
2023-05-22T19:02:08.455Z,23.03
2023-05-22T19:04:35.466Z,22.99
2023-05-22T19:07:04.630Z,22.96
2023-05-22T19:09:39.641Z,22.88
2023-05-22T19:12:06.517Z,22.57
2023-05-22T19:14:33.338Z,22.76
2023-05-22T19:17:01.303Z,22.71
2023-05-22T19:19:28.357Z,22.68
2023-05-22T19:21:55.376Z,22.63
2023-05-22T19:24:24.891Z,22.60
2023-05-22T19:26:54.486Z,22.57
2023-05-22T19:29:21.450Z,22.54
2023-05-22T19:31:51.074Z,22.50
2023-05-22T19:34:20.244Z,22.46
2023-05-22T19:36:47.135Z,22.41
2023-05-22T19:39:16.445Z,22.40
2023-05-22T19:41:43.389Z,22.36
2023-05-22T19:44:10.201Z,22.33
2023-05-22T19:46:38.144Z,22.30
2023-05-22T19:49:05.055Z,22.25
2023-05-22T19:51:32.499Z,22.21
2023-05-22T19:54:00.494Z,22.18
2023-05-22T19:56:28.325Z,22.17
2023-05-22T19:58:55.231Z,22.14
2023-05-22T20:01:22.917Z,22.08
2023-05-22T20:03:49.970Z,22.03
2023-05-22T20:06:17.173Z,21.97
2023-05-22T20:08:44.320Z,21.92
2023-05-22T20:11:14.215Z,21.88
2023-05-22T20:13:41.563Z,21.85
2023-05-22T20:16:11.954Z,21.80
2023-05-22T20:18:44.893Z,21.74
2023-05-22T20:21:11.810Z,21.67
2023-05-22T20:23:39.925Z,21.61
2023-05-22T20:26:06.765Z,21.55
2023-05-22T20:28:33.700Z,21.51
2023-05-22T20:31:00.899Z,21.47
2023-05-22T20:33:28.395Z,21.45
2023-05-22T20:35:55.646Z,21.43
2023-05-22T20:38:25.109Z,21.40
2023-05-22T20:40:52.085Z,21.39
2023-05-22T20:43:27.150Z,21.40
2023-05-22T20:45:55.856Z,21.39
2023-05-22T20:48:25.094Z,21.35
2023-05-22T20:50:52.339Z,21.34
2023-05-22T20:53:21.120Z,21.30
2023-05-22T20:55:48.255Z,21.23
2023-05-22T20:58:16.560Z,21.20
2023-05-22T21:00:45.861Z,21.15
2023-05-22T21:03:12.868Z,21.12
2023-05-22T21:05:39.936Z,21.08
2023-05-22T21:08:08.857Z,21.08
2023-05-22T21:10:35.744Z,21.05
2023-05-22T21:13:02.848Z,21.01
2023-05-22T21:15:29.738Z,21.01
2023-05-22T21:17:56.887Z,20.99
2023-05-22T21:20:23.868Z,20.91
2023-05-22T21:22:50.786Z,20.94
2023-05-22T21:25:20.755Z,20.93
2023-05-22T21:27:49.275Z,20.86
2023-05-22T21:30:41.841Z,20.64
2023-05-22T21:33:09.973Z,20.64
2023-05-22T21:35:39.319Z,20.65
2023-05-22T21:38:08.506Z,20.67
2023-05-22T21:41:00.700Z,20.57
2023-05-22T21:43:40.900Z,20.65
2023-05-22T21:46:14.995Z,20.64
2023-05-22T21:48:41.901Z,20.65
2023-05-22T21:51:11.380Z,20.64
2023-05-22T21:53:38.905Z,20.62
2023-05-22T21:56:06.074Z,20.61
2023-05-22T21:58:32.957Z,20.56
2023-05-22T22:01:00.013Z,20.45
2023-05-22T22:03:27.062Z,20.40
2023-05-22T22:05:53.891Z,20.35
2023-05-22T22:08:20.757Z,20.31
2023-05-22T22:10:47.571Z,20.27
2023-05-22T22:13:17.915Z,20.22
2023-05-22T22:15:44.777Z,20.20
2023-05-22T22:18:15.085Z,20.14
2023-05-22T22:20:45.060Z,20.07
2023-05-22T22:23:24.708Z,19.96
2023-05-22T22:25:51.508Z,19.92
2023-05-22T22:28:18.913Z,19.89
2023-05-22T22:30:45.961Z,19.88
2023-05-22T22:33:13.864Z,19.83
2023-05-22T22:35:42.305Z,19.75
2023-05-22T22:38:13.779Z,19.68
2023-05-22T22:40:41.374Z,19.63
2023-05-22T22:43:16.647Z,19.54
2023-05-22T22:45:46.522Z,19.55
2023-05-22T22:48:16.741Z,19.54
2023-05-22T22:50:46.951Z,19.51
2023-05-22T22:53:13.809Z,19.41
2023-05-22T22:55:43.355Z,19.33
2023-05-22T22:58:10.430Z,19.27
2023-05-22T23:00:37.195Z,19.22
2023-05-22T23:03:04.247Z,19.17
2023-05-22T23:05:31.180Z,19.12
2023-05-22T23:08:02.205Z,19.07
2023-05-22T23:10:29.383Z,19.11
2023-05-22T23:13:04.334Z,19.09
2023-05-22T23:15:31.391Z,19.04
2023-05-22T23:18:05.090Z,18.98
2023-05-22T23:20:33.275Z,18.92
2023-05-22T23:23:00.190Z,18.84
2023-05-22T23:25:31.918Z,18.75
2023-05-22T23:27:58.706Z,18.75
2023-05-22T23:30:25.709Z,18.74
2023-05-22T23:32:52.712Z,18.67
2023-05-22T23:35:19.650Z,18.63
2023-05-22T23:37:46.508Z,18.62
2023-05-22T23:40:13.791Z,18.60
2023-05-22T23:42:40.874Z,18.58
2023-05-22T23:45:08.149Z,18.53
2023-05-22T23:47:35.034Z,18.53
2023-05-22T23:50:02.082Z,18.53
2023-05-22T23:52:31.006Z,18.53
2023-05-22T23:54:58.061Z,18.51
2023-05-22T23:57:24.924Z,18.48
2023-05-22T23:59:51.818Z,18.46
